Observations for Trim Patrick St
| Time | AQI | Temp °C | Hum % | Pres Pa | CO μg/m³ | H₂S μg/m³ | NO μg/m³ | NO₂ μg/m³ | O₃ μg/m³ | SO₂ μg/m³ | PM1 μg/m³ | PM2.5 μg/m³ | PM10 μg/m³ |
|---|---|---|---|---|---|---|---|---|---|---|---|---|---|
| Saturday 1 August 2026 | |||||||||||||
| 18:05 | 3 | 26.9 | 35 | 69,088 | 0 | 9.5 | 1.29 | 18.38 | 88.58 | 11.99 | 3.71 | 11.31 | 12.44 |
| 18:04 | 3 | 26.9 | 35 | 69,088 | 0 | 7.9 | 1.14 | 21.39 | 98.13 | 12.03 | 5.43 | 12.93 | 14.23 |
| 18:03 | 3 | 26.9 | 35 | 69,086 | 0 | 4.83 | 1.21 | 15.9 | 85.92 | 11.75 | 5.43 | 12.91 | 14.2 |
| 18:02 | 3 | 27 | 35 | 69,088 | 0 | 6.03 | 1.08 | 21.18 | 82.71 | 11.76 | 5.43 | 12.92 | 14.21 |
| 18:01 | 3 | 27 | 34 | 69,063 | 0 | 5.39 | 1.15 | 18.85 | 77.88 | 12.06 | 7.14 | 14.56 | 16.01 |
| 18:00 | 3 | 27.1 | 35 | 69,027 | 0 | 9.7 | 1.16 | 23.71 | 88.21 | 11.48 | 7.14 | 16.13 | 17.74 |
| 17:59 | 3 | 27.2 | 35 | 69,037 | 0 | 5.72 | 1.18 | 19.05 | 93.51 | 11.99 | 5.43 | 12.95 | 14.24 |
| 17:58 | 3 | 27.2 | 34 | 69,023 | 0 | 2.63 | 1.1 | 18.66 | 88.79 | 11.85 | 6.29 | 15.39 | 16.92 |
| 17:56 | 3 | 27.2 | 35 | 69,043 | 0 | 0.95 | 1.16 | 14.1 | 74.99 | 11.71 | 7.14 | 15.33 | 16.86 |
| 17:55 | 3 | 27.2 | 35 | 69,063 | 0 | 6.2 | 1.15 | 23.18 | 86.33 | 11.51 | 6.29 | 14.51 | 15.96 |
| 17:54 | 3 | 27.2 | 35 | 69,055 | 0 | 5.61 | 1.25 | 18.73 | 88.84 | 11.61 | 8.86 | 16.1 | 17.71 |
| 17:53 | 3 | 27.1 | 35 | 69,071 | 0 | 6.69 | 1.4 | 18.94 | 85.52 | 12.27 | 9.71 | 18.53 | 20.38 |
| 17:52 | 3 | 27.1 | 34 | 69,063 | 0 | 4.39 | 1.4 | 15.06 | 81.15 | 11.21 | 8.86 | 16.94 | 18.64 |
| 17:50 | 3 | 27.2 | 35 | 69,041 | 0 | 6.04 | 1.4 | 19.08 | 87.13 | 11.5 | 3.71 | 11.32 | 12.45 |
| 17:48 | 3 | 27.2 | 35 | 69,047 | 0 | 3.99 | 1.39 | 19.63 | 81.52 | 11.82 | 4.57 | 10.55 | 11.61 |
| 17:46 | 3 | 27.2 | 35 | 69,014 | 0 | 3.8 | 1.29 | 21.38 | 85.18 | 11.41 | 3.71 | 10.55 | 11.61 |
| 17:45 | 3 | 27.2 | 34 | 69,023 | 0 | 7.19 | 1.31 | 17.02 | 83.97 | 12.01 | 4.57 | 9.79 | 10.76 |
| 17:44 | 3 | 27.3 | 34 | 69,033 | 0 | 5.93 | 1.23 | 21.41 | 87.37 | 12.1 | 2.86 | 9 | 9.9 |
| 17:43 | 3 | 27.4 | 34 | 69,014 | 0 | 4.29 | 1.18 | 20.18 | 90.38 | 12.19 | 3.71 | 10.62 | 11.68 |
| 17:42 | 3 | 27.5 | 34 | 69,021 | 0 | 2.18 | 1.15 | 18.06 | 78.67 | 11.58 | 3.71 | 10.64 | 11.7 |